createdAt,value
2019-03-24T00:02:30.218Z,25.17
2019-03-24T00:05:01.420Z,23.13
2019-03-24T00:07:33.727Z,27.33
2019-03-24T00:10:05.631Z,21.53
2019-03-24T00:12:37.138Z,24.57
2019-03-24T00:15:09.107Z,25.73
2019-03-24T00:17:40.140Z,27.53
2019-03-24T00:20:11.714Z,26.17
2019-03-24T00:22:43.028Z,29.47
2019-03-24T00:25:14.671Z,24.33
2019-03-24T00:27:46.406Z,37.00
2019-03-24T00:30:18.062Z,24.77
2019-03-24T00:32:49.478Z,26.03
2019-03-24T00:35:20.993Z,34.70
2019-03-24T00:37:52.237Z,25.93
2019-03-24T00:40:23.358Z,25.17
2019-03-24T00:42:54.750Z,29.20
2019-03-24T00:45:36.264Z,25.17
2019-03-24T00:48:04.765Z,21.83
2019-03-24T00:50:35.931Z,22.83
2019-03-24T00:53:07.046Z,23.13
2019-03-24T00:55:38.160Z,21.60
2019-03-24T00:58:09.397Z,27.13
2019-03-24T01:00:49.685Z,25.57
2019-03-24T01:03:21.180Z,23.10
2019-03-24T01:05:52.253Z,32.37
2019-03-24T01:08:23.455Z,26.13
2019-03-24T01:10:54.565Z,25.70
2019-03-24T01:13:25.871Z,27.90
2019-03-24T01:15:56.964Z,23.67
2019-03-24T01:18:28.118Z,25.87
2019-03-24T01:20:59.374Z,26.30
2019-03-24T01:23:30.764Z,25.60
2019-03-24T01:26:02.377Z,30.30
2019-03-24T01:28:33.886Z,24.27
2019-03-24T01:31:05.001Z,25.93
2019-03-24T01:33:36.657Z,28.50
2019-03-24T01:36:07.734Z,29.57
2019-03-24T01:38:38.897Z,32.17
2019-03-24T01:41:10.006Z,17.80
2019-03-24T01:43:41.385Z,25.70
2019-03-24T01:46:12.469Z,22.67
2019-03-24T01:48:43.983Z,28.53
2019-03-24T01:51:15.209Z,29.17
2019-03-24T01:53:46.166Z,28.20
2019-03-24T01:56:17.244Z,25.47
2019-03-24T01:58:48.892Z,25.90
2019-03-24T02:01:20.340Z,25.03
2019-03-24T02:03:51.485Z,21.77
2019-03-24T02:06:22.804Z,24.57
2019-03-24T02:08:53.997Z,22.20
2019-03-24T02:11:25.126Z,22.97
2019-03-24T02:13:56.274Z,34.83
2019-03-24T02:16:27.335Z,20.60
2019-03-24T02:18:58.381Z,22.33
2019-03-24T02:21:29.667Z,20.37
2019-03-24T02:24:00.877Z,22.60
2019-03-24T02:26:32.047Z,26.77
2019-03-24T02:29:03.494Z,24.17
2019-03-24T02:31:34.620Z,27.10
2019-03-24T02:34:05.739Z,24.40
2019-03-24T02:36:36.822Z,31.13
2019-03-24T02:39:09.466Z,24.90
2019-03-24T02:41:41.029Z,24.57
2019-03-24T02:44:12.146Z,26.97
2019-03-24T02:46:43.268Z,26.93
2019-03-24T02:49:14.638Z,25.07
2019-03-24T02:51:46.059Z,27.30
2019-03-24T02:54:17.222Z,18.10
2019-03-24T02:56:48.411Z,24.07
2019-03-24T02:59:19.566Z,28.10
2019-03-24T03:01:51.408Z,25.50
2019-03-24T03:04:22.514Z,24.70
2019-03-24T03:06:53.666Z,24.03
2019-03-24T03:09:24.833Z,21.83
2019-03-24T03:11:55.848Z,27.70
2019-03-24T03:14:27.004Z,22.43
2019-03-24T03:16:58.117Z,27.20
2019-03-24T03:19:29.436Z,21.13
2019-03-24T03:22:04.998Z,32.67
2019-03-24T03:24:35.919Z,31.53
2019-03-24T03:27:06.945Z,24.43
2019-03-24T03:29:38.167Z,32.93
2019-03-24T03:32:09.558Z,42.27
2019-03-24T03:34:40.732Z,36.17
2019-03-24T03:37:12.095Z,36.93
2019-03-24T03:39:43.162Z,47.67
2019-03-24T03:42:14.557Z,40.83
2019-03-24T03:44:45.665Z,36.17
2019-03-24T03:47:16.966Z,48.67
2019-03-24T03:49:48.048Z,53.87
2019-03-24T03:52:19.209Z,49.30
2019-03-24T03:54:50.643Z,48.37
2019-03-24T03:57:21.786Z,57.23
2019-03-24T03:59:53.284Z,49.53
2019-03-24T04:02:24.656Z,48.93
2019-03-24T04:04:55.731Z,52.30
2019-03-24T04:07:26.825Z,53.87
2019-03-24T04:09:58.245Z,69.67
2019-03-24T04:12:29.486Z,64.00
2019-03-24T04:15:01.115Z,60.50
2019-03-24T04:17:32.456Z,48.47
2019-03-24T04:20:03.581Z,46.27
2019-03-24T04:22:37.346Z,51.60
2019-03-24T04:25:08.653Z,55.73
2019-03-24T04:27:40.090Z,52.53
2019-03-24T04:30:11.885Z,64.00
2019-03-24T04:32:43.067Z,58.63
2019-03-24T04:35:14.247Z,59.63
2019-03-24T04:37:49.921Z,72.77
2019-03-24T04:40:21.048Z,64.40
2019-03-24T04:42:52.789Z,66.73
2019-03-24T04:45:23.887Z,71.83
2019-03-24T04:47:55.154Z,67.37
2019-03-24T04:50:26.915Z,59.70
2019-03-24T04:52:58.459Z,54.63
2019-03-24T04:55:29.628Z,58.47
2019-03-24T04:58:01.223Z,55.00
2019-03-24T05:00:42.053Z,56.40
2019-03-24T05:03:13.222Z,46.60
2019-03-24T05:05:44.693Z,61.03
2019-03-24T05:08:16.927Z,62.70
2019-03-24T05:10:48.380Z,62.00
2019-03-24T05:13:19.772Z,55.00
2019-03-24T05:15:50.892Z,51.20
2019-03-24T05:18:22.202Z,49.27
2019-03-24T05:20:53.601Z,51.23
2019-03-24T05:23:24.493Z,46.60
2019-03-24T05:25:55.559Z,36.17
2019-03-24T05:28:27.030Z,35.97
2019-03-24T05:30:58.350Z,40.97
2019-03-24T05:33:31.913Z,43.50
2019-03-24T05:36:03.539Z,36.97
2019-03-24T05:38:34.701Z,42.27
2019-03-24T05:41:05.817Z,38.23
2019-03-24T05:43:37.351Z,34.63
2019-03-24T05:46:08.366Z,36.03
2019-03-24T05:48:42.182Z,37.27
2019-03-24T05:51:13.726Z,33.50
2019-03-24T05:53:44.749Z,43.03
2019-03-24T05:56:16.273Z,32.53
2019-03-24T05:58:47.417Z,32.77
2019-03-24T06:01:18.539Z,32.27
2019-03-24T06:03:49.572Z,28.30
2019-03-24T06:06:20.698Z,37.23
2019-03-24T06:08:52.018Z,33.27
2019-03-24T06:11:23.127Z,38.27
2019-03-24T06:13:54.245Z,27.47
2019-03-24T06:16:25.621Z,35.67
2019-03-24T06:18:57.644Z,33.83
2019-03-24T06:21:31.186Z,26.57
2019-03-24T06:24:02.535Z,34.70
2019-03-24T06:26:33.882Z,37.53
2019-03-24T06:29:05.083Z,36.17
2019-03-24T06:31:36.168Z,39.40
2019-03-24T06:34:07.261Z,27.33
2019-03-24T06:36:38.493Z,36.87
2019-03-24T06:39:10.194Z,27.77
2019-03-24T06:41:41.829Z,26.90
2019-03-24T06:44:12.857Z,30.27
2019-03-24T06:46:44.017Z,24.03
2019-03-24T06:49:15.399Z,30.57
2019-03-24T06:51:46.424Z,26.77
2019-03-24T06:54:17.567Z,23.83
2019-03-24T06:56:48.583Z,33.67
2019-03-24T06:59:19.654Z,30.83
2019-03-24T07:01:51.042Z,28.83
2019-03-24T07:04:22.477Z,28.90
2019-03-24T07:06:53.640Z,24.40
2019-03-24T07:09:24.706Z,27.43
2019-03-24T07:11:55.797Z,27.37
2019-03-24T07:14:26.767Z,24.93
2019-03-24T07:16:58.123Z,30.40
2019-03-24T07:19:29.545Z,25.17
2019-03-24T07:22:00.650Z,28.20
2019-03-24T07:24:32.270Z,28.17
2019-03-24T07:27:03.299Z,28.77
2019-03-24T07:29:34.635Z,26.33
2019-03-24T07:32:05.686Z,30.37
2019-03-24T07:34:37.255Z,31.87
2019-03-24T07:37:08.452Z,22.57
2019-03-24T07:39:39.506Z,23.37
2019-03-24T07:42:10.603Z,31.23
2019-03-24T07:44:42.221Z,26.47
2019-03-24T07:47:16.288Z,32.43
2019-03-24T07:49:47.391Z,28.97
2019-03-24T07:52:18.850Z,29.97
2019-03-24T07:54:50.031Z,24.20
2019-03-24T07:57:21.401Z,26.03
2019-03-24T07:59:52.554Z,26.07
2019-03-24T08:02:24.167Z,25.53
2019-03-24T08:04:55.404Z,25.33
2019-03-24T08:07:26.521Z,23.77
2019-03-24T08:09:57.588Z,23.47
2019-03-24T08:12:28.984Z,25.63
2019-03-24T08:15:00.211Z,25.30
2019-03-24T08:17:31.412Z,23.77
2019-03-24T08:20:02.340Z,25.63
2019-03-24T08:22:33.743Z,24.27
2019-03-24T08:25:07.164Z,29.00
2019-03-24T08:27:38.281Z,24.53
2019-03-24T08:30:09.721Z,22.17
2019-03-24T08:32:40.829Z,27.50
2019-03-24T08:35:12.390Z,19.60
2019-03-24T08:37:43.402Z,21.03
2019-03-24T08:40:15.011Z,23.27
2019-03-24T08:42:46.395Z,20.53
2019-03-24T08:45:27.500Z,23.30
2019-03-24T08:47:59.051Z,22.53
2019-03-24T08:50:33.758Z,19.53
2019-03-24T08:53:05.170Z,18.97
2019-03-24T08:55:36.246Z,19.13
2019-03-24T08:58:07.341Z,21.87
2019-03-24T09:00:39.494Z,22.47
2019-03-24T09:03:10.620Z,21.50
2019-03-24T09:05:42.214Z,21.30
2019-03-24T09:08:13.289Z,16.33
2019-03-24T09:10:44.607Z,18.90
2019-03-24T09:13:16.752Z,18.90
2019-03-24T09:15:48.386Z,18.07
2019-03-24T09:18:21.186Z,17.87
2019-03-24T09:20:52.270Z,19.67
2019-03-24T09:23:23.671Z,17.37
2019-03-24T09:25:55.495Z,18.93
2019-03-24T09:28:27.060Z,14.47
2019-03-24T09:30:58.476Z,14.87
2019-03-24T09:33:29.842Z,9.43
2019-03-24T09:36:01.300Z,13.93
2019-03-24T09:38:41.492Z,16.63
2019-03-24T09:41:12.732Z,19.20
2019-03-24T09:43:44.332Z,18.83
2019-03-24T09:46:15.669Z,15.30
2019-03-24T09:48:46.678Z,15.43
2019-03-24T09:51:17.873Z,18.30
2019-03-24T09:53:49.037Z,14.63
2019-03-24T09:56:20.545Z,18.10
2019-03-24T09:58:51.709Z,16.90
2019-03-24T10:01:23.107Z,15.10
2019-03-24T10:03:54.312Z,10.87
2019-03-24T10:06:26.365Z,12.13
2019-03-24T10:08:57.819Z,11.00
2019-03-24T10:11:28.827Z,10.47
2019-03-24T10:14:00.030Z,11.73
2019-03-24T10:16:31.114Z,14.03
2019-03-24T10:19:02.185Z,11.83
2019-03-24T10:21:33.621Z,11.60
2019-03-24T10:24:07.837Z,9.70
2019-03-24T10:26:38.440Z,7.93
2019-03-24T10:29:09.865Z,10.17
2019-03-24T10:31:42.619Z,12.10
2019-03-24T10:34:13.664Z,11.10
2019-03-24T10:36:44.698Z,8.93
2019-03-24T10:39:21.802Z,10.30
2019-03-24T10:41:53.147Z,8.63
2019-03-24T10:44:24.408Z,10.13
2019-03-24T10:46:55.546Z,9.97
2019-03-24T10:49:27.191Z,8.33
2019-03-24T10:51:58.617Z,11.23
2019-03-24T10:54:30.646Z,7.90
2019-03-24T10:57:01.821Z,9.90
2019-03-24T10:59:32.938Z,6.23
2019-03-24T11:02:04.164Z,8.37
2019-03-24T11:04:35.490Z,6.80
2019-03-24T11:07:06.506Z,9.80
2019-03-24T11:09:37.778Z,8.63
2019-03-24T11:12:09.229Z,6.70
2019-03-24T11:14:40.850Z,5.70
2019-03-24T11:17:12.049Z,8.00
2019-03-24T11:19:45.184Z,8.57
2019-03-24T11:22:16.425Z,5.57
2019-03-24T11:24:47.962Z,9.97
2019-03-24T11:27:19.114Z,9.30
2019-03-24T11:29:50.359Z,8.53
2019-03-24T11:32:21.633Z,8.10
2019-03-24T11:34:52.681Z,8.60
2019-03-24T11:37:24.379Z,9.30
2019-03-24T11:39:55.393Z,10.00
2019-03-24T11:42:26.519Z,12.57
2019-03-24T11:44:57.814Z,7.03
2019-03-24T11:47:29.216Z,6.30
2019-03-24T11:50:00.548Z,10.00
2019-03-24T11:52:31.680Z,7.67
2019-03-24T11:55:03.601Z,10.57
2019-03-24T11:57:35.009Z,7.97
2019-03-24T12:00:07.609Z,7.90
2019-03-24T12:02:38.981Z,9.17
2019-03-24T12:05:13.531Z,7.27
2019-03-24T12:07:44.705Z,7.17
2019-03-24T12:10:17.774Z,6.40
2019-03-24T12:12:49.259Z,9.27
2019-03-24T12:15:20.394Z,9.97
2019-03-24T12:17:51.525Z,9.50
2019-03-24T12:20:22.804Z,8.97
2019-03-24T12:22:54.308Z,9.10
2019-03-24T12:25:25.782Z,9.77
2019-03-24T12:27:57.736Z,9.83
2019-03-24T12:30:42.275Z,6.63
2019-03-24T12:33:14.442Z,7.73
2019-03-24T12:35:45.590Z,10.97
2019-03-24T12:38:16.948Z,9.53
2019-03-24T12:40:48.031Z,11.80
2019-03-24T12:43:19.956Z,7.47
2019-03-24T12:45:51.629Z,10.07
2019-03-24T12:48:22.966Z,7.40
2019-03-24T12:50:54.100Z,5.83
2019-03-24T12:53:25.272Z,6.23
2019-03-24T12:55:56.428Z,7.50
2019-03-24T12:58:27.391Z,6.87
2019-03-24T13:00:58.928Z,4.87
2019-03-24T13:03:29.930Z,3.90
2019-03-24T13:06:01.530Z,4.97
2019-03-24T13:08:32.490Z,5.30
2019-03-24T13:11:05.719Z,5.37
2019-03-24T13:13:36.903Z,6.77
2019-03-24T13:16:07.967Z,6.07
2019-03-24T13:18:39.029Z,5.97
2019-03-24T13:21:10.104Z,8.67
2019-03-24T13:23:41.176Z,7.97
2019-03-24T13:26:12.292Z,4.93
2019-03-24T13:28:43.730Z,6.53
2019-03-24T13:31:15.130Z,7.13
2019-03-24T13:33:46.942Z,6.63
2019-03-24T13:36:18.247Z,8.20
2019-03-24T13:38:49.678Z,7.53
2019-03-24T13:41:20.790Z,8.50
2019-03-24T13:43:52.152Z,8.50
2019-03-24T13:46:23.586Z,12.03
2019-03-24T13:48:54.652Z,12.87
2019-03-24T13:51:26.057Z,11.20
2019-03-24T13:53:57.896Z,15.63
2019-03-24T13:56:29.285Z,11.43
2019-03-24T13:59:00.620Z,10.57
2019-03-24T14:01:32.253Z,10.33
2019-03-24T14:04:03.432Z,9.70
2019-03-24T14:06:34.805Z,15.97
2019-03-24T14:09:08.252Z,11.63
2019-03-24T14:11:39.361Z,15.83
2019-03-24T14:14:10.892Z,12.87
2019-03-24T14:16:42.222Z,9.97
2019-03-24T14:19:13.379Z,15.07
2019-03-24T14:21:44.887Z,15.23
2019-03-24T14:24:16.269Z,11.40
2019-03-24T14:26:47.658Z,14.03
2019-03-24T14:29:18.706Z,11.67
2019-03-24T14:31:49.762Z,12.70
2019-03-24T14:34:21.144Z,11.90
2019-03-24T14:36:52.161Z,10.87
2019-03-24T14:39:23.315Z,14.93
2019-03-24T14:41:54.446Z,10.10
2019-03-24T14:44:25.550Z,14.00
2019-03-24T14:46:56.663Z,12.77
2019-03-24T14:49:28.006Z,13.97
2019-03-24T14:51:59.075Z,9.77
2019-03-24T14:54:30.251Z,8.30
2019-03-24T14:57:01.394Z,13.33
2019-03-24T14:59:32.836Z,10.43
2019-03-24T15:02:03.881Z,13.33
2019-03-24T15:04:34.847Z,10.73
2019-03-24T15:07:06.428Z,10.20
2019-03-24T15:09:37.570Z,9.93
2019-03-24T15:12:08.702Z,8.37
2019-03-24T15:14:40.365Z,8.40
2019-03-24T15:17:11.594Z,13.90
2019-03-24T15:19:42.649Z,7.53
2019-03-24T15:22:13.749Z,7.80
2019-03-24T15:24:44.843Z,7.93
2019-03-24T15:27:16.220Z,10.03
2019-03-24T15:29:47.533Z,8.17
2019-03-24T15:32:18.617Z,11.47
2019-03-24T15:34:49.982Z,10.57
2019-03-24T15:37:21.459Z,13.73
2019-03-24T15:39:52.598Z,8.67
2019-03-24T15:42:23.722Z,9.37
2019-03-24T15:44:54.863Z,9.50
2019-03-24T15:47:26.157Z,7.07
2019-03-24T15:49:57.277Z,6.30
2019-03-24T15:52:28.301Z,6.20
2019-03-24T15:54:59.637Z,6.90
2019-03-24T15:57:30.792Z,9.87
2019-03-24T16:00:02.228Z,8.70
2019-03-24T16:02:33.409Z,7.53
2019-03-24T16:05:04.858Z,8.87
2019-03-24T16:07:36.284Z,7.83
2019-03-24T16:10:08.141Z,9.90
2019-03-24T16:12:39.252Z,8.83
2019-03-24T16:15:11.111Z,13.23
2019-03-24T16:17:42.536Z,8.80
2019-03-24T16:20:13.596Z,7.23
2019-03-24T16:22:44.719Z,12.20
2019-03-24T16:25:15.848Z,9.83
2019-03-24T16:27:46.861Z,13.70
2019-03-24T16:30:18.105Z,10.70
2019-03-24T16:32:49.440Z,11.17
2019-03-24T16:35:20.579Z,12.30
2019-03-24T16:37:51.708Z,11.03
2019-03-24T16:40:22.754Z,9.47
2019-03-24T16:42:53.814Z,12.70
2019-03-24T16:45:24.902Z,13.90
2019-03-24T16:47:55.904Z,17.20
2019-03-24T16:50:27.314Z,12.33
2019-03-24T16:52:58.445Z,9.53
2019-03-24T16:55:29.547Z,13.33
2019-03-24T16:58:00.558Z,10.63
2019-03-24T17:00:31.952Z,15.17
2019-03-24T17:03:03.287Z,9.10
2019-03-24T17:05:34.211Z,9.63
2019-03-24T17:08:05.352Z,9.93
2019-03-24T17:10:36.477Z,12.57
2019-03-24T17:13:07.614Z,13.40
2019-03-24T17:15:38.691Z,10.77
2019-03-24T17:18:09.862Z,17.40
2019-03-24T17:20:41.000Z,14.73
2019-03-24T17:23:12.931Z,14.50
2019-03-24T17:25:44.054Z,9.80
2019-03-24T17:28:15.062Z,10.60
2019-03-24T17:30:46.296Z,9.37
2019-03-24T17:33:17.974Z,13.60
2019-03-24T17:35:50.245Z,9.47
2019-03-24T17:38:21.648Z,12.67
2019-03-24T17:40:53.235Z,13.27
2019-03-24T17:43:24.406Z,13.37
2019-03-24T17:45:55.794Z,13.50
2019-03-24T17:48:27.023Z,12.10
2019-03-24T17:50:58.537Z,7.43
2019-03-24T17:53:29.764Z,9.60
2019-03-24T17:56:01.037Z,11.77
2019-03-24T17:58:32.377Z,11.17
2019-03-24T18:01:03.589Z,10.97
2019-03-24T18:03:34.545Z,9.40
2019-03-24T18:06:05.712Z,13.17
2019-03-24T18:08:36.833Z,12.13
2019-03-24T18:11:07.929Z,13.43
2019-03-24T18:13:39.133Z,11.63
2019-03-24T18:16:10.885Z,8.70
2019-03-24T18:18:42.137Z,13.20
2019-03-24T18:21:13.235Z,8.57
2019-03-24T18:23:44.632Z,13.00
2019-03-24T18:26:15.701Z,10.77
2019-03-24T18:28:47.119Z,12.70
2019-03-24T18:31:18.174Z,9.80
2019-03-24T18:33:49.310Z,9.93
2019-03-24T18:36:20.401Z,12.50
2019-03-24T18:38:51.520Z,11.50
2019-03-24T18:41:22.640Z,8.97
2019-03-24T18:43:54.075Z,9.70
2019-03-24T18:46:25.236Z,8.60
2019-03-24T18:48:56.364Z,8.03
2019-03-24T18:51:27.498Z,9.83
2019-03-24T18:53:58.643Z,11.37
2019-03-24T18:56:29.722Z,10.03
2019-03-24T18:59:00.747Z,9.33
2019-03-24T19:01:32.070Z,9.47
2019-03-24T19:04:03.373Z,7.73
2019-03-24T19:06:34.373Z,10.63
2019-03-24T19:09:07.859Z,11.63
2019-03-24T19:11:38.971Z,11.67
2019-03-24T19:14:10.383Z,10.87
2019-03-24T19:16:41.851Z,7.00
2019-03-24T19:19:12.946Z,10.60
2019-03-24T19:21:45.489Z,10.63
2019-03-24T19:24:16.770Z,10.20
2019-03-24T19:26:48.113Z,11.20
2019-03-24T19:29:19.612Z,11.40
2019-03-24T19:31:50.998Z,10.00
2019-03-24T19:34:22.450Z,12.03
2019-03-24T19:36:53.814Z,10.00
2019-03-24T19:39:25.420Z,9.80
2019-03-24T19:41:56.559Z,8.03
2019-03-24T19:44:27.633Z,10.70
2019-03-24T19:46:58.916Z,11.60
2019-03-24T19:49:30.119Z,11.67
2019-03-24T19:52:01.603Z,11.00
2019-03-24T19:54:33.059Z,10.90
2019-03-24T19:57:04.131Z,11.23
2019-03-24T19:59:35.331Z,12.97
2019-03-24T20:02:06.456Z,11.87
2019-03-24T20:04:38.080Z,10.10
2019-03-24T20:07:09.537Z,13.10
2019-03-24T20:09:40.886Z,11.70
2019-03-24T20:12:12.143Z,10.10
2019-03-24T20:14:43.663Z,13.50
2019-03-24T20:17:14.794Z,8.83
2019-03-24T20:19:46.696Z,10.73
2019-03-24T20:22:18.008Z,16.00
2019-03-24T20:24:49.462Z,14.83
2019-03-24T20:27:20.511Z,12.63
2019-03-24T20:29:51.548Z,10.50
2019-03-24T20:32:22.980Z,13.53
2019-03-24T20:34:54.210Z,12.27
2019-03-24T20:37:25.370Z,10.67
2019-03-24T20:39:56.284Z,12.33
2019-03-24T20:42:27.419Z,10.17
2019-03-24T20:44:58.503Z,10.90
2019-03-24T20:47:29.588Z,8.23
2019-03-24T20:50:03.762Z,14.70
2019-03-24T20:52:33.996Z,12.03
2019-03-24T20:55:05.706Z,13.03
2019-03-24T20:57:37.059Z,9.67
2019-03-24T21:00:10.063Z,11.73
2019-03-24T21:02:41.393Z,13.73
2019-03-24T21:05:12.865Z,13.37
2019-03-24T21:07:44.111Z,7.03
2019-03-24T21:10:15.618Z,11.43
2019-03-24T21:12:46.928Z,12.03
2019-03-24T21:15:18.045Z,7.63
2019-03-24T21:17:49.452Z,9.63
2019-03-24T21:20:20.869Z,13.97
2019-03-24T21:22:52.712Z,8.20
2019-03-24T21:25:23.761Z,11.10
2019-03-24T21:27:54.895Z,14.17
2019-03-24T21:30:37.012Z,11.33
2019-03-24T21:33:08.455Z,14.87
2019-03-24T21:35:40.033Z,14.37
2019-03-24T21:38:11.117Z,15.60
2019-03-24T21:40:42.471Z,13.90
2019-03-24T21:43:28.880Z,13.90
2019-03-24T21:45:59.979Z,13.37
2019-03-24T21:48:31.110Z,13.07
2019-03-24T21:51:02.210Z,10.00
2019-03-24T21:53:40.608Z,12.73
2019-03-24T21:56:06.088Z,12.33
2019-03-24T21:58:37.160Z,15.17
2019-03-24T22:01:08.298Z,13.20
2019-03-24T22:03:39.346Z,13.37
2019-03-24T22:06:10.757Z,14.77
2019-03-24T22:08:43.055Z,11.67
2019-03-24T22:11:14.111Z,12.40
2019-03-24T22:13:45.565Z,11.30
2019-03-24T22:16:16.650Z,9.67
2019-03-24T22:18:58.417Z,13.57
2019-03-24T22:21:29.559Z,11.60
2019-03-24T22:24:01.143Z,11.10
2019-03-24T22:26:32.342Z,13.23
2019-03-24T22:29:03.387Z,13.17
2019-03-24T22:31:34.584Z,9.80
2019-03-24T22:34:06.034Z,8.83
2019-03-24T22:36:37.872Z,11.23
2019-03-24T22:39:09.784Z,15.27
2019-03-24T22:41:40.847Z,18.07
2019-03-24T22:44:11.905Z,14.93
2019-03-24T22:46:43.033Z,10.70
2019-03-24T22:49:14.178Z,15.00
2019-03-24T22:51:45.378Z,12.27
2019-03-24T22:54:16.891Z,11.87
2019-03-24T22:56:48.254Z,12.83
2019-03-24T22:59:19.453Z,17.23
2019-03-24T23:01:50.637Z,12.53
2019-03-24T23:04:22.043Z,13.17
2019-03-24T23:06:53.233Z,13.33
2019-03-24T23:09:24.312Z,11.60
2019-03-24T23:11:55.486Z,11.70
2019-03-24T23:14:26.576Z,9.70
2019-03-24T23:16:57.603Z,10.47
2019-03-24T23:19:28.775Z,13.93
2019-03-24T23:22:00.208Z,13.13
2019-03-24T23:24:31.463Z,10.70
2019-03-24T23:27:02.897Z,12.33
2019-03-24T23:29:34.013Z,10.00
2019-03-24T23:32:05.150Z,10.50
2019-03-24T23:34:36.182Z,15.30
2019-03-24T23:37:07.166Z,12.27
2019-03-24T23:39:38.554Z,10.43
2019-03-24T23:42:09.782Z,15.23
2019-03-24T23:44:41.106Z,9.37
2019-03-24T23:47:12.226Z,11.23
2019-03-24T23:49:43.307Z,12.87
2019-03-24T23:52:14.776Z,16.37
2019-03-24T23:54:46.744Z,12.13
2019-03-24T23:57:17.992Z,10.30
2019-03-24T23:59:49.023Z,11.23
